Time;durP1;ratioP1;P1;durP2;ratioP2;P2;SDS_P1;SDS_P2;PMS_P1;PMS_P2;Temp;Humidity;BMP_temperature;BMP_pressure;BME280_temperature;BME280_humidity;BME280_pressure;Samples;Min_cycle;Max_cycle;Signal;HPM_P1;HPM_P2
2022/08/19 00:02:12;;;;;;;0.40;0.40;;;19.70;68.10;;;20.22;54.21;94290.06;5028923;28;20256;-78
2022/08/19 00:04:40;;;;;;;0.40;0.40;;;19.70;68.20;;;20.24;54.28;94292.47;5020470;28;20199;-79
2022/08/19 00:07:07;;;;;;;0.57;0.57;;;19.70;68.30;;;20.29;54.64;94297.78;5016943;28;20236;-79
2022/08/19 00:09:35;;;;;;;0.40;0.40;;;19.80;68.60;;;20.30;54.19;94281.53;5012664;28;20254;-79
2022/08/19 00:12:03;;;;;;;0.40;0.40;;;19.80;68.70;;;20.39;54.58;94287.09;5028153;28;20316;-79
2022/08/19 00:14:34;;;;;;;0.40;0.40;;;19.80;68.70;;;20.45;54.72;94301.22;5025161;28;20678;-79
2022/08/19 00:17:02;;;;;;;0.40;0.40;;;19.90;68.90;;;20.50;54.26;94282.56;5012128;28;20306;-78
2022/08/19 00:19:30;;;;;;;0.40;0.40;;;19.90;68.90;;;20.55;54.52;94297.75;5012018;28;20197;-80
2022/08/19 00:21:58;;;;;;;0.40;0.40;;;20.00;69.00;;;20.57;54.56;94303.63;5012925;28;20217;-79
2022/08/19 00:24:28;;;;;;;0.30;0.30;;;20.00;68.90;;;20.61;54.85;94320.66;5012169;28;20207;-79
2022/08/19 00:26:56;;;;;;;0.30;0.30;;;20.00;68.90;;;20.63;54.91;94318.53;5011164;28;20255;-78
2022/08/19 00:29:45;;;;;;;0.40;0.40;;;20.10;68.90;;;20.63;54.94;94323.84;4985953;28;20767;-78
2022/08/19 00:32:18;;;;;;;0.40;0.40;;;20.10;69.10;;;20.66;54.80;94325.97;5031020;28;20223;-79
2022/08/19 00:34:46;;;;;;;0.40;0.40;;;20.10;69.20;;;20.73;54.76;94341.72;5015850;28;20206;-80
2022/08/19 00:37:13;;;;;;;0.35;0.35;;;20.20;69.00;;;20.75;54.60;94348.38;5014423;28;20607;-79
2022/08/19 00:39:40;;;;;;;0.40;0.40;;;20.20;69.20;;;20.78;54.94;94350.47;5012418;28;20204;-80
2022/08/19 00:42:07;;;;;;;0.40;0.40;;;20.20;69.20;;;20.83;54.87;94362.22;5011903;28;20213;-79
2022/08/19 00:44:35;;;;;;;0.40;0.40;;;20.20;69.30;;;20.86;54.66;94356.31;4982850;28;20211;-79
2022/08/19 00:47:03;;;;;;;0.40;0.40;;;20.30;69.40;;;20.91;55.32;94342.97;4997118;28;20327;-80
2022/08/19 00:49:52;;;;;;;0.40;0.40;;;20.30;69.40;;;20.92;54.99;94323.25;5012789;28;20282;-80
2022/08/19 00:52:28;;;;;;;0.40;0.40;;;20.40;69.80;;;20.96;55.44;94327.00;5008472;28;20227;-80
2022/08/19 00:54:57;;;;;;;0.40;0.40;;;20.40;69.60;;;20.99;54.82;94322.97;5000310;28;20250;-79
2022/08/19 00:57:32;;;;;;;0.40;0.40;;;20.40;69.30;;;20.98;54.82;94332.03;4994640;28;20212;-78
2022/08/19 01:00:01;;;;;;;0.30;0.30;;;20.50;69.50;;;20.94;54.61;94332.56;5014004;28;20625;-79
2022/08/19 01:02:31;;;;;;;0.40;0.40;;;20.50;69.10;;;20.90;54.75;94336.06;5020722;28;20277;-79
2022/08/19 01:05:01;;;;;;;0.40;0.40;;;20.40;69.80;;;20.85;55.13;94334.22;4995623;28;20199;-79
2022/08/19 01:07:28;;;;;;;0.40;0.40;;;20.40;69.00;;;20.79;55.36;94340.63;4997223;28;20714;-79
2022/08/19 01:10:11;;;;;;;0.40;0.40;;;20.40;68.80;;;20.77;55.15;94348.09;5013171;28;20638;-79
2022/08/19 01:12:39;;;;;;;0.40;0.40;;;20.40;68.90;;;20.73;55.03;94341.72;4981885;28;20216;-79
2022/08/19 01:15:10;;;;;;;0.40;0.40;;;20.30;68.90;;;20.72;54.69;94343.56;4994927;28;21233;-78
2022/08/19 01:17:40;;;;;;;0.40;0.40;;;20.30;69.20;;;20.69;55.30;94344.09;5011309;28;20220;-79
2022/08/19 01:20:16;;;;;;;0.40;0.40;;;20.20;69.00;;;20.63;55.16;94334.50;4995625;28;20618;-79
2022/08/19 01:22:57;;;;;;;0.40;0.40;;;20.20;69.20;;;20.59;55.06;94341.41;5011936;28;20285;-79
2022/08/19 01:25:31;;;;;;;0.40;0.40;;;20.20;69.30;;;20.54;54.94;94355.53;4997067;28;20311;-78
2022/08/19 01:27:59;;;;;;;0.43;0.43;;;20.10;69.00;;;20.50;54.93;94354.50;4995960;28;20224;-79
2022/08/19 01:30:37;;;;;;;0.43;0.43;;;20.10;68.90;;;20.43;54.91;94348.63;5029763;28;20208;-79
2022/08/19 01:33:05;;;;;;;0.30;0.30;;;20.00;69.80;;;20.42;55.37;94368.34;5031371;28;20200;-78
2022/08/19 01:35:32;;;;;;;0.40;0.40;;;20.00;69.00;;;20.38;55.09;94362.75;5012773;28;20349;-77
2022/08/19 01:38:08;;;;;;;0.38;0.38;;;20.00;69.30;;;20.36;55.26;94366.75;5009074;28;20216;-79
2022/08/19 01:40:38;;;;;;;0.40;0.40;;;19.90;69.30;;;20.35;55.06;94373.94;5026536;28;20208;-79
2022/08/19 01:43:06;;;;;;;0.40;0.40;;;19.90;69.40;;;20.36;55.55;94385.38;4994504;28;20247;-78
2022/08/19 01:45:35;;;;;;;0.40;0.40;;;19.90;69.20;;;20.31;55.10;94392.31;5020271;28;20578;-79
2022/08/19 01:48:04;;;;;;;0.45;0.45;;;19.90;69.60;;;20.36;55.43;94390.72;5011220;28;20192;-79
2022/08/19 01:50:33;;;;;;;0.40;0.40;;;19.80;69.60;;;20.35;55.17;94384.59;5013337;28;20599;-79
2022/08/19 01:53:05;;;;;;;0.30;0.30;;;19.90;69.40;;;20.30;55.93;94385.41;5008628;28;20211;-79
2022/08/19 01:55:38;;;;;;;0.40;0.40;;;19.80;69.60;;;20.26;55.98;94381.69;4996515;28;20254;-79
2022/08/19 01:58:13;;;;;;;0.40;0.40;;;19.80;69.60;;;20.22;55.40;94385.91;4998218;28;20676;-79
2022/08/19 02:00:41;;;;;;;0.40;0.40;;;19.80;69.50;;;20.18;55.34;94376.06;5028263;28;20563;-78
2022/08/19 02:03:10;;;;;;;0.40;0.40;;;19.80;69.30;;;20.12;55.72;94367.28;5029950;28;20654;-79
2022/08/19 02:05:41;;;;;;;0.30;0.30;;;19.80;69.40;;;20.07;55.77;94354.75;5030917;28;20215;-79
2022/08/19 02:08:09;;;;;;;0.40;0.40;;;19.80;69.60;;;20.06;56.17;94358.47;5019833;28;20207;-79
2022/08/19 02:10:42;;;;;;;0.32;0.32;;;19.70;69.50;;;20.02;56.09;94349.44;5005087;28;20209;-79
2022/08/19 02:13:12;;;;;;;0.40;0.40;;;19.70;69.80;;;20.00;55.90;94355.00;5005926;28;20243;-78
2022/08/19 02:15:39;;;;;;;0.40;0.40;;;19.60;69.60;;;20.00;55.80;94356.88;5026957;28;20196;-78
2022/08/19 02:18:08;;;;;;;0.40;0.40;;;19.60;69.60;;;20.02;56.21;94369.91;4994625;28;20212;-79
2022/08/19 02:20:36;;;;;;;0.35;0.35;;;19.60;69.70;;;19.99;56.09;94345.44;5018917;28;20200;-79
2022/08/19 02:23:04;;;;;;;0.30;0.30;;;19.50;69.70;;;20.04;55.76;94357.94;5010357;28;20263;-79
2022/08/19 02:25:40;;;;;;;0.40;0.40;;;19.60;69.80;;;20.06;56.09;94376.34;5010139;28;20663;-79
2022/08/19 02:28:07;;;;;;;0.40;0.40;;;19.60;70.00;;;20.05;55.87;94377.41;5011009;28;20196;-78
2022/08/19 02:30:34;;;;;;;0.50;0.50;;;19.60;69.90;;;20.02;56.04;94375.25;5012382;28;20276;-79
2022/08/19 02:33:02;;;;;;;0.40;0.40;;;19.60;69.90;;;19.99;55.77;94373.91;5009724;28;20200;-79
2022/08/19 02:35:29;;;;;;;0.40;0.40;;;19.50;69.80;;;20.02;55.99;94373.41;5010228;28;20624;-79
2022/08/19 02:40:51;;;;;;;0.43;0.43;;;19.50;69.60;;;19.98;55.60;94353.69;5025545;28;20203;-79
2022/08/19 02:43:22;;;;;;;0.45;0.45;;;19.50;69.90;;;19.94;56.06;94336.66;4996932;28;20621;-79
2022/08/19 02:45:51;;;;;;;0.40;0.40;;;19.50;69.80;;;19.92;55.94;94358.22;5030516;28;20298;-78
2022/08/19 02:48:24;;;;;;;0.43;0.43;;;19.50;69.80;;;19.90;56.08;94373.63;5023812;28;20658;-79
2022/08/19 02:50:55;;;;;;;0.40;0.40;;;19.50;70.10;;;19.89;56.07;94372.03;5038388;28;20283;-79
2022/08/19 02:53:26;;;;;;;0.40;0.40;;;19.40;69.80;;;19.87;56.06;94374.16;5037627;28;20188;-79
2022/08/19 02:55:54;;;;;;;0.40;0.40;;;19.40;70.00;;;19.89;55.86;94380.03;5020183;28;20228;-80
2022/08/19 02:58:22;;;;;;;0.40;0.40;;;19.40;69.80;;;19.91;55.87;94366.44;5003004;28;20291;-78
2022/08/19 03:00:55;;;;;;;0.40;0.40;;;19.40;69.90;;;19.91;56.22;94371.75;5003837;28;20271;-78
2022/08/19 03:03:23;;;;;;;0.30;0.30;;;19.40;70.10;;;19.90;55.89;94368.31;5005163;28;20248;-79
2022/08/19 03:05:50;;;;;;;0.40;0.40;;;19.40;70.00;;;19.90;55.98;94362.22;5020034;28;20756;-78
2022/08/19 03:08:25;;;;;;;0.43;0.43;;;19.40;70.00;;;19.88;55.91;94361.66;5014461;28;20923;-79
2022/08/19 03:10:53;;;;;;;0.40;0.40;;;19.40;70.00;;;19.88;56.25;94374.97;5021817;28;20200;-79
2022/08/19 03:13:21;;;;;;;0.40;0.40;;;19.40;70.10;;;19.84;56.12;94364.06;5013447;28;20205;-79
2022/08/19 03:15:48;;;;;;;0.40;0.40;;;19.40;70.00;;;19.81;56.28;94351.22;5023179;28;20646;-78
2022/08/19 03:18:16;;;;;;;0.50;0.50;;;19.40;70.00;;;19.80;55.90;94360.31;4997716;28;20200;-79
2022/08/19 03:20:47;;;;;;;0.40;0.40;;;19.40;70.20;;;19.79;56.63;94346.19;5013578;28;20681;-79
2022/08/19 03:23:17;;;;;;;0.40;0.40;;;19.30;70.20;;;19.79;56.20;94345.38;5009192;28;20199;-79
2022/08/19 03:25:47;;;;;;;0.40;0.40;;;19.30;70.10;;;19.79;56.00;94354.16;5003011;28;20228;-79
2022/08/19 03:28:33;;;;;;;0.40;0.40;;;19.30;70.20;;;19.79;56.60;94358.69;5028906;28;20192;-78
2022/08/19 03:31:12;;;;;;;0.40;0.40;;;19.30;70.20;;;19.79;56.34;94350.72;5028444;28;20818;-79
2022/08/19 03:33:59;;;;;;;0.50;0.50;;;19.30;70.60;;;19.76;56.19;94356.53;5018669;28;20304;-79
2022/08/19 03:36:27;;;;;;;0.40;0.40;;;19.40;70.20;;;19.77;56.52;94366.13;5023149;28;20223;-79
2022/08/19 03:38:59;;;;;;;0.40;0.40;;;19.30;70.20;;;19.72;56.67;94366.13;5021431;28;20208;-78
2022/08/19 03:41:36;;;;;;;0.40;0.40;;;19.30;71.20;;;19.63;56.33;94353.34;5019809;28;20244;-79
2022/08/19 03:44:21;;;;;;;0.40;0.40;;;19.30;70.60;;;19.66;56.65;94378.59;5017878;28;20669;-79
2022/08/19 03:46:53;;;;;;;0.43;0.43;;;19.30;71.70;;;19.63;56.71;94381.81;5006224;28;20235;-78
2022/08/19 03:49:22;;;;;;;0.40;0.40;;;19.30;70.50;;;19.61;56.64;94391.91;4996722;28;20481;-77
2022/08/19 03:51:56;;;;;;;0.32;0.32;;;19.20;70.30;;;19.60;56.22;94406.25;4998493;28;20223;-79
2022/08/19 03:54:25;;;;;;;0.40;0.40;;;19.20;70.50;;;19.57;56.44;94399.59;5015426;28;20204;-79
2022/08/19 03:56:54;;;;;;;0.50;0.50;;;19.10;70.60;;;19.58;56.72;94397.72;4998922;28;20629;-79
2022/08/19 03:59:30;;;;;;;0.40;0.40;;;19.20;70.60;;;19.58;56.29;94397.72;4980023;28;20212;-80
2022/08/19 04:02:08;;;;;;;0.40;0.40;;;19.10;71.10;;;19.58;56.75;94401.22;4992066;28;20227;-80
2022/08/19 04:04:38;;;;;;;0.40;0.40;;;19.20;71.70;;;19.60;57.00;94398.28;5003333;28;20243;-79
2022/08/19 04:07:06;;;;;;;0.40;0.40;;;19.10;71.00;;;19.62;56.94;94414.78;5008614;28;20246;-79
2022/08/19 04:09:34;;;;;;;0.40;0.40;;;19.10;70.90;;;19.63;56.74;94416.41;5009255;28;20247;-80
2022/08/19 04:12:02;;;;;;;0.40;0.40;;;19.10;70.90;;;19.64;56.94;94402.81;4999306;28;20212;-79
2022/08/19 04:14:30;;;;;;;0.40;0.40;;;19.20;71.00;;;19.65;56.89;94409.75;5005921;28;20649;-79
2022/08/19 04:16:59;;;;;;;0.40;0.40;;;19.20;71.10;;;19.68;57.18;94413.75;5023577;28;20311;-79
2022/08/19 04:19:29;;;;;;;0.40;0.40;;;19.20;71.30;;;19.69;57.87;94418.00;5005759;28;20193;-79
2022/08/19 04:21:56;;;;;;;0.30;0.30;;;19.20;71.40;;;19.68;57.88;94411.88;5001855;28;20220;-80
2022/08/19 04:24:24;;;;;;;0.40;0.40;;;19.20;71.40;;;19.70;58.58;94418.78;5001283;28;20682;-80
2022/08/19 04:26:51;;;;;;;0.45;0.45;;;19.30;71.90;;;19.66;59.30;94418.50;5014970;28;20235;-79
2022/08/19 04:29:24;;;;;;;0.40;0.40;;;19.30;72.10;;;19.70;58.72;94422.28;5032608;28;20650;-80
2022/08/19 04:31:55;;;;;;;0.40;0.40;;;19.40;72.30;;;19.73;58.49;94421.72;4996017;28;20235;-79
2022/08/19 04:34:25;;;;;;;0.43;0.43;;;19.40;72.10;;;19.79;58.74;94422.56;5005862;28;20198;-79
2022/08/19 04:36:55;;;;;;;0.40;0.40;;;19.40;72.10;;;19.82;58.82;94433.47;4999230;28;20223;-79
2022/08/19 04:42:38;;;;;;;0.40;0.40;;;19.50;72.20;;;19.88;58.14;94436.97;5014921;28;20200;-80
2022/08/19 04:45:12;;;;;;;0.30;0.30;;;19.50;72.00;;;19.96;58.28;94449.00;5016686;28;20735;-79
2022/08/19 04:47:43;;;;;;;0.40;0.40;;;19.60;71.70;;;20.00;57.77;94452.72;4995858;28;20327;-79
2022/08/19 04:50:26;;;;;;;0.30;0.30;;;19.60;73.00;;;20.05;58.28;94470.56;4990619;28;20206;-79
2022/08/19 04:52:55;;;;;;;0.40;0.40;;;19.70;72.10;;;20.13;57.94;94476.19;4996137;28;20378;-80
2022/08/19 04:55:25;;;;;;;0.40;0.40;;;19.70;72.10;;;20.18;58.74;94454.09;5012323;28;20251;-80
2022/08/19 04:57:53;;;;;;;0.40;0.40;;;19.80;72.10;;;20.26;58.38;94458.09;4996197;28;20241;-80
2022/08/19 05:00:20;;;;;;;0.40;0.40;;;19.80;72.10;;;20.35;58.06;94456.50;5011924;28;20192;-80
2022/08/19 05:02:49;;;;;;;0.40;0.40;;;19.90;72.20;;;20.44;58.22;94451.47;4995651;28;20263;-79
2022/08/19 05:05:17;;;;;;;0.50;0.50;;;19.90;72.10;;;20.53;58.11;94454.38;5011995;28;20602;-79
2022/08/19 05:07:44;;;;;;;0.40;0.40;;;20.00;73.20;;;20.57;58.21;94466.91;5011965;28;20729;-78
2022/08/19 05:10:12;;;;;;;0.40;0.40;;;20.10;72.30;;;20.64;58.08;94471.97;5012016;28;20189;-80
2022/08/19 05:12:39;;;;;;;0.40;0.40;;;20.20;72.60;;;20.72;58.55;94478.69;4995990;28;20315;-80
2022/08/19 05:15:08;;;;;;;0.38;0.38;;;20.30;72.60;;;20.79;58.16;94488.00;4981720;28;20201;-80
2022/08/19 05:17:36;;;;;;;0.40;0.40;;;20.30;72.40;;;20.86;58.15;94497.59;5013320;28;20275;-79
2022/08/19 05:22:53;;;;;;;0.35;0.35;;;20.50;72.40;;;20.97;58.15;94507.22;5011932;28;20628;-79
2022/08/19 05:25:22;;;;;;;0.40;0.40;;;20.60;71.90;;;21.03;57.77;94516.81;4995749;28;20258;-79
2022/08/19 05:27:49;;;;;;;0.30;0.30;;;20.60;71.90;;;21.04;57.72;94517.59;5011673;28;20225;-79
2022/08/19 05:30:17;;;;;;;0.30;0.30;;;20.70;71.90;;;21.17;57.99;94526.94;5011712;28;20554;-80
2022/08/19 05:32:50;;;;;;;0.40;0.40;;;20.80;71.90;;;21.23;58.30;94534.66;5012138;28;20268;-80
2022/08/19 05:35:20;;;;;;;0.30;0.30;;;20.80;72.10;;;21.36;58.27;94554.66;4996690;28;20199;-80
2022/08/19 05:37:47;;;;;;;0.47;0.47;;;20.90;72.20;;;21.44;58.24;94563.97;5011783;28;20220;-79
2022/08/19 05:40:20;;;;;;;0.40;0.40;;;21.00;72.20;;;21.56;58.35;94569.84;5012627;28;20318;-80
2022/08/19 05:42:49;;;;;;;0.40;0.40;;;21.10;72.30;;;21.67;58.05;94573.31;5011465;28;20209;-80
2022/08/19 05:45:21;;;;;;;0.50;0.50;;;21.20;72.30;;;21.82;57.95;94577.00;4996780;28;20203;-80
2022/08/19 05:47:48;;;;;;;0.45;0.45;;;21.30;72.30;;;21.93;57.79;94583.13;4995136;28;20248;-79
2022/08/19 05:50:17;;;;;;;0.32;0.32;;;21.50;72.20;;;22.03;57.52;94607.13;4995425;28;20201;-80
2022/08/19 05:52:44;;;;;;;0.35;0.35;;;21.60;72.00;;;22.11;57.62;94641.28;5027879;28;20222;-78
2022/08/19 05:55:16;;;;;;;0.30;0.30;;;21.60;72.60;;;22.18;57.78;94684.56;5011372;28;20679;-79
2022/08/19 05:57:43;;;;;;;0.30;0.30;;;21.70;71.50;;;22.17;57.04;94715.00;4995168;28;20250;-80
2022/08/19 06:00:11;;;;;;;0.40;0.40;;;21.90;71.40;;;22.24;57.22;94717.41;5011418;28;20279;-80
2022/08/19 06:02:41;;;;;;;0.30;0.30;;;21.90;71.30;;;22.23;57.25;94715.81;4995154;28;20223;-78
2022/08/19 06:05:09;;;;;;;0.40;0.40;;;21.90;71.40;;;22.21;57.56;94665.28;4995332;28;20192;-79
2022/08/19 06:07:38;;;;;;;0.40;0.40;;;21.90;71.50;;;22.19;57.81;94608.69;4994714;28;20716;-79
2022/08/19 06:10:10;;;;;;;0.30;0.30;;;21.90;71.70;;;22.16;57.74;94549.66;5027479;28;20200;-78
2022/08/19 06:12:37;;;;;;;0.30;0.30;;;21.90;71.90;;;22.11;57.66;94531.78;5011292;28;20563;-80
2022/08/19 06:15:10;;;;;;;0.40;0.40;;;21.90;71.80;;;22.07;58.34;94499.47;4994837;28;20666;-80
2022/08/19 06:17:38;;;;;;;0.30;0.30;;;21.80;72.00;;;22.03;57.96;94484.28;5014134;28;20593;-80
2022/08/19 06:20:11;;;;;;;0.35;0.35;;;21.80;72.10;;;21.98;58.54;94458.38;5015292;28;20290;-80
2022/08/19 06:22:41;;;;;;;0.40;0.40;;;21.70;72.20;;;21.93;58.24;94439.72;4999166;28;20648;-79
2022/08/19 06:25:09;;;;;;;0.45;0.45;;;21.70;72.30;;;21.93;58.42;94446.97;5015065;28;20183;-80
2022/08/19 06:27:37;;;;;;;0.40;0.40;;;21.60;72.40;;;21.90;58.43;94446.44;5015155;28;20235;-80
2022/08/19 06:30:24;;;;;;;0.30;0.30;;;21.60;72.50;;;21.90;58.34;94450.97;5015110;28;20253;-80
2022/08/19 06:32:52;;;;;;;0.30;0.30;;;21.60;72.60;;;21.90;58.91;94442.97;4998980;28;20585;-80
2022/08/19 06:35:19;;;;;;;0.35;0.35;;;21.60;72.70;;;21.91;58.94;94439.22;4998951;28;20209;-80
2022/08/19 06:37:46;;;;;;;0.40;0.40;;;21.60;72.90;;;21.94;58.62;94437.88;4998680;28;20215;-80
2022/08/19 06:40:14;;;;;;;0.40;0.40;;;21.60;73.00;;;21.97;58.82;94442.66;5014859;28;20596;-80
2022/08/19 06:42:41;;;;;;;0.40;0.40;;;21.60;73.10;;;22.01;59.14;94446.38;4998314;28;20222;-80
2022/08/19 06:45:22;;;;;;;0.20;0.20;;;21.60;73.40;;;22.07;59.05;94442.63;5000044;28;20199;-80
2022/08/19 06:48:00;;;;;;;0.40;0.40;;;21.60;73.50;;;22.13;59.39;94448.69;5014739;28;20581;-80
2022/08/19 06:50:27;;;;;;;0.40;0.40;;;21.70;73.70;;;22.22;59.32;94453.19;5014586;28;20227;-80
2022/08/19 06:52:54;;;;;;;0.40;0.40;;;21.80;73.90;;;22.32;59.88;94471.03;4998264;28;20222;-80
2022/08/19 06:55:22;;;;;;;0.40;0.40;;;21.90;74.30;;;22.45;59.88;94476.84;4998464;28;20197;-80
2022/08/19 06:57:52;;;;;;;0.30;0.30;;;22.00;74.30;;;22.62;59.85;94479.13;5014522;28;20782;-80
2022/08/19 07:00:20;;;;;;;0.40;0.40;;;22.10;74.50;;;22.77;59.88;94481.72;5014862;28;20232;-80
2022/08/19 07:02:49;;;;;;;0.40;0.40;;;22.30;74.20;;;22.93;59.37;94476.25;4998242;28;20212;-80
2022/08/19 07:05:23;;;;;;;0.30;0.30;;;22.40;74.00;;;23.08;59.45;94473.41;4999069;28;20201;-79
2022/08/19 07:07:50;;;;;;;0.38;0.38;;;22.60;74.20;;;23.25;59.59;94472.22;5014087;28;20235;-80
2022/08/19 07:10:18;;;;;;;0.30;0.30;;;22.80;74.90;;;23.40;59.07;94465.91;4997897;28;20200;-80
2022/08/19 07:12:46;;;;;;;0.30;0.30;;;22.90;73.80;;;23.55;59.06;94471.13;5013810;28;20223;-80
2022/08/19 07:15:13;;;;;;;0.30;0.30;;;23.10;74.00;;;23.67;59.04;94474.19;4998326;28;20205;-80
2022/08/19 07:17:43;;;;;;;0.30;0.30;;;23.30;73.70;;;23.76;59.27;94466.31;5014123;28;20292;-80
2022/08/19 07:20:11;;;;;;;0.40;0.40;;;23.40;73.70;;;23.81;59.29;94466.28;5014357;28;20220;-80
2022/08/19 07:22:39;;;;;;;0.40;0.40;;;23.60;73.50;;;23.82;59.33;94477.78;4998257;28;20214;-80
2022/08/19 07:25:09;;;;;;;0.30;0.30;;;23.70;72.90;;;23.83;59.29;94500.81;4997885;28;20732;-80
2022/08/19 07:27:37;;;;;;;0.30;0.30;;;23.70;73.00;;;23.83;59.40;94506.16;4997470;28;20231;-79
2022/08/19 07:30:08;;;;;;;0.32;0.32;;;23.80;72.90;;;23.96;59.26;94524.25;5012736;28;20197;-79
2022/08/19 07:32:39;;;;;;;0.30;0.30;;;23.80;73.90;;;24.05;59.18;94523.63;5014603;28;20226;-79
2022/08/19 07:35:08;;;;;;;0.50;0.50;;;23.90;73.00;;;24.06;59.05;94512.59;5013978;28;20588;-79
2022/08/19 07:37:37;;;;;;;0.30;0.30;;;24.00;73.30;;;24.18;58.93;94517.56;4997493;28;20223;-80
2022/08/19 07:40:07;;;;;;;0.30;0.30;;;24.00;72.70;;;24.24;58.85;94523.63;5013725;28;20197;-79
2022/08/19 07:42:34;;;;;;;0.40;0.40;;;24.10;72.60;;;24.25;58.76;94534.06;5013472;28;20244;-79
2022/08/19 07:45:03;;;;;;;0.30;0.30;;;24.10;72.50;;;24.27;58.58;94528.44;5016130;28;20203;-79
2022/08/19 07:47:30;;;;;;;0.30;0.30;;;24.10;72.50;;;24.29;58.92;94524.38;5010699;28;20628;-79
2022/08/19 07:50:19;;;;;;;0.30;0.30;;;24.20;72.60;;;24.34;58.61;94520.03;5013653;28;20189;-80
2022/08/19 07:52:49;;;;;;;0.20;0.20;;;24.20;72.40;;;24.41;58.58;94525.81;5011514;28;20223;-80
2022/08/19 07:55:21;;;;;;;0.50;0.50;;;24.30;72.50;;;24.47;58.16;94538.06;4997115;28;20189;-80
2022/08/19 07:58:13;;;;;;;0.30;0.30;;;24.30;72.30;;;24.56;58.44;94522.13;5002542;28;20200;-80
2022/08/19 08:00:43;;;;;;;0.30;0.30;;;24.30;72.60;;;24.66;58.47;94521.22;4997518;28;20241;-80
2022/08/19 08:03:12;;;;;;;0.50;0.50;;;24.40;72.60;;;24.74;58.35;94526.75;4980980;28;20201;-80
2022/08/19 08:11:04;;;;;;;0.50;0.50;;;24.60;72.10;;;25.03;57.91;94519.59;5012214;28;20402;-80
2022/08/19 08:13:35;;;;;;;0.30;0.30;;;24.70;72.20;;;25.13;58.06;94515.94;5021529;28;20280;-80
2022/08/19 08:16:03;;;;;;;0.30;0.30;;;24.90;72.20;;;25.23;57.73;94510.38;4998830;28;20205;-80
2022/08/19 08:18:31;;;;;;;0.40;0.40;;;24.90;72.10;;;25.33;57.92;94509.41;4998297;28;20388;-80
2022/08/19 08:20:58;;;;;;;0.30;0.30;;;25.10;72.30;;;25.50;57.88;94517.75;5020827;28;20582;-80
2022/08/19 08:23:26;;;;;;;0.40;0.40;;;25.20;72.20;;;25.59;57.54;94506.31;5027341;28;20202;-79
2022/08/19 08:25:56;;;;;;;0.30;0.30;;;25.30;71.80;;;25.77;57.38;94512.69;5010899;28;20199;-79
2022/08/19 08:28:27;;;;;;;0.30;0.30;;;25.50;71.80;;;25.91;57.24;94518.84;5010925;28;20226;-79
2022/08/19 08:30:57;;;;;;;0.30;0.30;;;25.60;71.60;;;26.05;57.59;94527.72;5011654;28;20218;-79
2022/08/19 08:33:26;;;;;;;0.30;0.30;;;25.70;71.60;;;26.20;57.16;94534.69;4995170;28;20639;-79
2022/08/19 08:36:11;;;;;;;0.30;0.30;;;25.90;71.40;;;26.38;56.87;94534.88;5011758;28;20234;-79
2022/08/19 08:38:39;;;;;;;0.30;0.30;;;26.10;71.20;;;26.52;56.58;94530.28;5011870;28;20219;-79
2022/08/19 08:41:43;;;;;;;0.20;0.20;;;26.20;70.90;;;26.68;56.62;94532.63;5004011;28;20251;-79
2022/08/19 08:44:22;;;;;;;0.30;0.30;;;26.40;70.70;;;26.85;56.11;94532.00;5016848;28;20261;-78
2022/08/19 08:47:03;;;;;;;0.22;0.22;;;26.60;70.30;;;27.00;56.67;94528.13;4994225;28;20229;-79
2022/08/19 08:50:06;;;;;;;0.20;0.20;;;26.70;70.70;;;27.19;55.83;94527.19;5010630;28;20199;-79
2022/08/19 08:52:42;;;;;;;0.30;0.30;;;26.90;70.20;;;27.37;55.56;94536.13;5010198;28;20271;-79
2022/08/19 08:55:19;;;;;;;0.30;0.30;;;27.20;69.60;;;27.55;55.43;94537.88;4980286;28;20212;-79
2022/08/19 08:57:50;;;;;;;0.30;0.30;;;27.30;69.50;;;27.76;55.02;94534.66;5014806;28;20222;-78
2022/08/19 09:00:23;;;;;;;0.30;0.30;;;27.50;69.60;;;27.96;54.84;94546.75;5032055;28;20199;-78
2022/08/19 09:02:51;;;;;;;0.20;0.20;;;27.70;69.00;;;28.13;54.47;94546.06;5029020;28;20229;-77
2022/08/19 09:05:21;;;;;;;0.30;0.30;;;27.80;69.00;;;28.33;53.95;94538.50;5031800;28;20242;-79
2022/08/19 09:08:28;;;;;;;0.30;0.30;;;28.00;68.60;;;28.49;53.63;94533.44;5030241;28;20314;-78
2022/08/19 09:10:57;;;;;;;0.22;0.22;;;28.30;68.30;;;28.60;53.28;94530.13;4995019;28;20243;-79
2022/08/19 09:14:10;;;;;;;0.20;0.20;;;28.40;67.60;;;28.67;53.58;94518.84;5001766;28;20677;-79
2022/08/19 09:16:58;;;;;;;0.20;0.20;;;28.50;67.60;;;28.71;53.53;94527.94;5003511;28;20234;-79
2022/08/19 09:19:26;;;;;;;0.28;0.28;;;28.60;67.20;;;28.76;53.05;94532.41;5009576;28;20712;-79
2022/08/19 09:21:55;;;;;;;0.30;0.30;;;28.70;66.90;;;28.78;52.13;94532.06;4993691;28;20258;-79
2022/08/19 09:24:23;;;;;;;0.20;0.20;;;28.70;66.30;;;28.77;52.55;94525.09;5010551;28;20203;-79
2022/08/19 09:26:57;;;;;;;0.20;0.20;;;28.70;66.20;;;28.82;51.71;94527.63;4995747;28;20308;-78
2022/08/19 09:29:25;;;;;;;0.30;0.30;;;28.70;66.10;;;28.86;51.97;94531.28;5014336;28;20212;-79
2022/08/19 09:31:53;;;;;;;0.30;0.30;;;28.70;66.10;;;28.93;51.84;94534.31;5013265;28;20640;-79
2022/08/19 09:34:20;;;;;;;0.20;0.20;;;28.80;66.10;;;29.03;51.52;94527.78;5013590;28;20626;-79
2022/08/19 09:36:54;;;;;;;0.20;0.20;;;28.80;65.90;;;29.14;51.42;94530.94;4999109;28;20216;-79
2022/08/19 09:39:22;;;;;;;0.20;0.20;;;29.00;65.70;;;29.23;51.24;94516.31;5032190;28;20186;-79
2022/08/19 09:41:49;;;;;;;0.30;0.30;;;29.10;65.50;;;29.34;51.05;94526.81;5030109;28;20213;-78
2022/08/19 09:44:20;;;;;;;0.30;0.30;;;29.10;65.20;;;29.42;50.37;94517.09;5009397;28;20206;-78
2022/08/19 09:46:48;;;;;;;0.30;0.30;;;29.20;64.80;;;29.42;50.50;94501.69;5001269;28;20476;-79
2022/08/19 09:49:21;;;;;;;0.35;0.35;;;29.30;64.70;;;29.49;50.21;94498.47;5010237;28;20218;-78
2022/08/19 09:51:53;;;;;;;0.22;0.22;;;29.30;63.80;;;29.52;49.58;94498.63;4997550;28;20233;-78
2022/08/19 09:54:20;;;;;;;0.20;0.20;;;29.40;64.10;;;29.59;50.01;94497.34;5010943;28;20189;-79
2022/08/19 09:56:52;;;;;;;0.20;0.20;;;29.40;64.10;;;29.65;48.49;94494.16;4995273;28;20226;-78
2022/08/19 09:59:20;;;;;;;0.25;0.25;;;29.50;62.80;;;29.69;48.58;94502.41;4994499;28;20229;-78
2022/08/19 10:01:47;;;;;;;0.20;0.20;;;29.50;63.10;;;29.71;49.08;94497.44;4995129;28;20227;-78
2022/08/19 10:04:15;;;;;;;0.20;0.20;;;29.60;63.10;;;29.82;48.63;94495.16;5007389;28;20211;-77
2022/08/19 10:06:49;;;;;;;0.20;0.20;;;29.70;62.80;;;29.92;48.82;94486.75;5010345;28;20670;-77
2022/08/19 10:09:20;;;;;;;0.30;0.30;;;29.70;62.90;;;30.05;48.78;94481.44;5016997;28;20261;-78
2022/08/19 10:12:02;;;;;;;0.20;0.20;;;29.80;63.10;;;30.21;48.13;94478.94;5003660;28;20302;-79
2022/08/19 10:14:32;;;;;;;0.30;0.30;;;29.90;62.80;;;30.39;48.35;94482.34;5010087;28;20206;-78
2022/08/19 10:17:02;;;;;;;0.30;0.30;;;30.10;62.70;;;30.49;47.78;94479.22;5019815;28;20236;-77
2022/08/19 10:19:44;;;;;;;0.30;0.30;;;30.30;62.50;;;30.63;47.43;94481.72;5023453;28;20658;-78
2022/08/19 10:22:22;;;;;;;0.30;0.30;;;30.40;62.00;;;30.69;47.13;94474.97;5031973;28;20216;-78
2022/08/19 10:24:52;;;;;;;0.30;0.30;;;30.50;61.70;;;30.77;46.94;94462.47;5011713;28;20203;-78
2022/08/19 10:27:20;;;;;;;0.30;0.30;;;30.50;61.30;;;30.81;46.03;94449.88;5005614;28;20226;-79
2022/08/19 10:29:47;;;;;;;0.20;0.20;;;30.60;61.10;;;30.87;46.71;94451.25;5012228;28;20232;-78
2022/08/19 10:32:15;;;;;;;0.35;0.35;;;30.70;61.10;;;30.95;46.26;94450.34;5033379;28;20220;-79
2022/08/19 10:34:42;;;;;;;0.30;0.30;;;30.70;61.10;;;31.00;46.04;94452.06;5024666;28;20209;-76
2022/08/19 10:37:19;;;;;;;0.30;0.30;;;30.80;60.90;;;31.05;45.43;94451.84;5009089;28;20220;-79
2022/08/19 10:39:55;;;;;;;0.30;0.30;;;30.80;60.50;;;31.09;45.38;94462.84;4994344;28;20485;-78
2022/08/19 10:42:22;;;;;;;0.28;0.28;;;30.90;60.60;;;31.17;45.58;94464.66;4978242;28;20228;-77
2022/08/19 10:44:49;;;;;;;0.30;0.30;;;30.90;60.30;;;31.23;45.36;94460.63;5017951;28;20277;-77
2022/08/19 10:47:18;;;;;;;0.30;0.30;;;31.00;60.20;;;31.33;44.85;94472.94;5009055;28;20309;-78
2022/08/19 10:52:45;;;;;;;0.30;0.30;;;31.20;59.80;;;31.50;44.78;94463.84;5025691;28;20220;-77
2022/08/19 10:58:22;;;;;;;0.20;0.20;;;31.40;58.90;;;31.56;43.63;94461.72;5028842;28;20290;-77